sensor_id;sensor_type;location;lat;lon;timestamp;temperature;humidity
32394;DHT22;18853;45.426;9.206;2023-04-25T00:01:11;22.10;43.80
32394;DHT22;18853;45.426;9.206;2023-04-25T00:03:39;22.10;43.70
32394;DHT22;18853;45.426;9.206;2023-04-25T00:06:05;22.10;43.70
32394;DHT22;18853;45.426;9.206;2023-04-25T00:08:32;22.10;43.60
32394;DHT22;18853;45.426;9.206;2023-04-25T00:10:58;22.10;43.70
32394;DHT22;18853;45.426;9.206;2023-04-25T00:13:25;22.00;43.50
32394;DHT22;18853;45.426;9.206;2023-04-25T00:15:51;22.00;43.60
32394;DHT22;18853;45.426;9.206;2023-04-25T00:18:19;22.00;43.70
32394;DHT22;18853;45.426;9.206;2023-04-25T00:20:45;22.00;43.70
32394;DHT22;18853;45.426;9.206;2023-04-25T00:23:16;22.00;43.60
32394;DHT22;18853;45.426;9.206;2023-04-25T00:25:48;22.00;44.00
32394;DHT22;18853;45.426;9.206;2023-04-25T00:28:14;22.00;43.40
32394;DHT22;18853;45.426;9.206;2023-04-25T00:30:41;21.90;43.20
32394;DHT22;18853;45.426;9.206;2023-04-25T00:33:07;21.90;43.30
32394;DHT22;18853;45.426;9.206;2023-04-25T00:35:33;21.80;43.40
32394;DHT22;18853;45.426;9.206;2023-04-25T00:37:59;21.80;43.40
32394;DHT22;18853;45.426;9.206;2023-04-25T00:40:25;21.80;43.40
32394;DHT22;18853;45.426;9.206;2023-04-25T00:42:54;21.80;43.30
32394;DHT22;18853;45.426;9.206;2023-04-25T00:45:20;21.80;43.20
32394;DHT22;18853;45.426;9.206;2023-04-25T00:47:46;21.80;43.30
32394;DHT22;18853;45.426;9.206;2023-04-25T00:50:13;21.70;43.40
32394;DHT22;18853;45.426;9.206;2023-04-25T00:52:42;21.70;43.50
32394;DHT22;18853;45.426;9.206;2023-04-25T00:55:08;21.60;43.40
32394;DHT22;18853;45.426;9.206;2023-04-25T00:57:34;21.70;43.50
32394;DHT22;18853;45.426;9.206;2023-04-25T01:00:01;21.70;43.60
32394;DHT22;18853;45.426;9.206;2023-04-25T01:02:27;21.60;43.50
32394;DHT22;18853;45.426;9.206;2023-04-25T01:04:53;21.60;43.60
32394;DHT22;18853;45.426;9.206;2023-04-25T01:07:19;21.50;43.60
32394;DHT22;18853;45.426;9.206;2023-04-25T01:09:46;21.50;43.60
32394;DHT22;18853;45.426;9.206;2023-04-25T01:12:12;21.50;43.70
32394;DHT22;18853;45.426;9.206;2023-04-25T01:14:38;21.50;43.70
32394;DHT22;18853;45.426;9.206;2023-04-25T01:17:04;21.40;43.50
32394;DHT22;18853;45.426;9.206;2023-04-25T01:19:29;21.40;43.50
32394;DHT22;18853;45.426;9.206;2023-04-25T01:21:56;21.40;43.50
32394;DHT22;18853;45.426;9.206;2023-04-25T01:24:22;21.40;43.40
32394;DHT22;18853;45.426;9.206;2023-04-25T01:26:48;21.30;43.70
32394;DHT22;18853;45.426;9.206;2023-04-25T01:29:17;21.30;43.70
32394;DHT22;18853;45.426;9.206;2023-04-25T01:31:44;21.30;43.50
32394;DHT22;18853;45.426;9.206;2023-04-25T01:34:10;21.30;43.50
32394;DHT22;18853;45.426;9.206;2023-04-25T01:36:36;21.20;43.60
32394;DHT22;18853;45.426;9.206;2023-04-25T01:39:02;21.30;43.50
32394;DHT22;18853;45.426;9.206;2023-04-25T01:41:28;21.20;43.60
32394;DHT22;18853;45.426;9.206;2023-04-25T01:43:54;21.20;43.60
32394;DHT22;18853;45.426;9.206;2023-04-25T01:46:20;21.20;43.60
32394;DHT22;18853;45.426;9.206;2023-04-25T01:48:46;21.20;43.60
32394;DHT22;18853;45.426;9.206;2023-04-25T01:51:12;21.20;43.70
32394;DHT22;18853;45.426;9.206;2023-04-25T01:53:38;21.20;43.70
32394;DHT22;18853;45.426;9.206;2023-04-25T01:56:04;21.10;43.60
32394;DHT22;18853;45.426;9.206;2023-04-25T01:58:30;21.10;43.70
32394;DHT22;18853;45.426;9.206;2023-04-25T02:00:56;21.10;43.80
32394;DHT22;18853;45.426;9.206;2023-04-25T02:03:21;21.10;43.90
32394;DHT22;18853;45.426;9.206;2023-04-25T02:05:47;21.10;44.00
32394;DHT22;18853;45.426;9.206;2023-04-25T02:08:13;21.00;44.00
32394;DHT22;18853;45.426;9.206;2023-04-25T02:10:39;21.00;44.10
32394;DHT22;18853;45.426;9.206;2023-04-25T02:13:05;21.00;44.10
32394;DHT22;18853;45.426;9.206;2023-04-25T02:15:31;21.00;44.00
32394;DHT22;18853;45.426;9.206;2023-04-25T02:17:57;21.00;44.20
32394;DHT22;18853;45.426;9.206;2023-04-25T02:20:24;20.90;44.20
32394;DHT22;18853;45.426;9.206;2023-04-25T02:22:50;20.90;44.30
32394;DHT22;18853;45.426;9.206;2023-04-25T02:25:17;20.90;44.30
32394;DHT22;18853;45.426;9.206;2023-04-25T02:27:45;20.90;44.30
32394;DHT22;18853;45.426;9.206;2023-04-25T02:30:11;20.80;44.40
32394;DHT22;18853;45.426;9.206;2023-04-25T02:32:38;20.80;44.50
32394;DHT22;18853;45.426;9.206;2023-04-25T02:35:05;20.80;44.70
32394;DHT22;18853;45.426;9.206;2023-04-25T02:37:35;20.70;44.80
32394;DHT22;18853;45.426;9.206;2023-04-25T02:40:01;20.70;44.80
32394;DHT22;18853;45.426;9.206;2023-04-25T02:42:28;20.70;44.80
32394;DHT22;18853;45.426;9.206;2023-04-25T02:44:54;20.60;44.90
32394;DHT22;18853;45.426;9.206;2023-04-25T02:47:20;20.60;45.10
32394;DHT22;18853;45.426;9.206;2023-04-25T02:49:45;20.60;45.10
32394;DHT22;18853;45.426;9.206;2023-04-25T02:52:12;20.60;45.10
32394;DHT22;18853;45.426;9.206;2023-04-25T02:54:39;20.60;45.10
32394;DHT22;18853;45.426;9.206;2023-04-25T02:57:05;20.50;45.20
32394;DHT22;18853;45.426;9.206;2023-04-25T02:59:31;20.50;45.30
32394;DHT22;18853;45.426;9.206;2023-04-25T03:01:56;20.50;45.40
32394;DHT22;18853;45.426;9.206;2023-04-25T03:04:22;20.50;45.40
32394;DHT22;18853;45.426;9.206;2023-04-25T03:06:51;20.50;45.50
32394;DHT22;18853;45.426;9.206;2023-04-25T03:09:17;20.50;45.50
32394;DHT22;18853;45.426;9.206;2023-04-25T03:11:44;20.40;45.70
32394;DHT22;18853;45.426;9.206;2023-04-25T03:14:10;20.40;45.70
32394;DHT22;18853;45.426;9.206;2023-04-25T03:16:35;20.40;45.80
32394;DHT22;18853;45.426;9.206;2023-04-25T03:19:02;20.40;45.90
32394;DHT22;18853;45.426;9.206;2023-04-25T03:21:28;20.30;46.00
32394;DHT22;18853;45.426;9.206;2023-04-25T03:23:53;20.30;46.10
32394;DHT22;18853;45.426;9.206;2023-04-25T03:26:19;20.30;46.20
32394;DHT22;18853;45.426;9.206;2023-04-25T03:28:45;20.30;46.40
32394;DHT22;18853;45.426;9.206;2023-04-25T03:31:11;20.30;46.40
32394;DHT22;18853;45.426;9.206;2023-04-25T03:33:37;20.20;46.40
32394;DHT22;18853;45.426;9.206;2023-04-25T03:36:03;20.20;46.40
32394;DHT22;18853;45.426;9.206;2023-04-25T03:38:28;20.20;46.40
32394;DHT22;18853;45.426;9.206;2023-04-25T03:40:54;20.10;46.70
32394;DHT22;18853;45.426;9.206;2023-04-25T03:43:21;20.10;47.00
32394;DHT22;18853;45.426;9.206;2023-04-25T03:45:47;20.10;47.10
32394;DHT22;18853;45.426;9.206;2023-04-25T03:48:12;20.10;47.20
32394;DHT22;18853;45.426;9.206;2023-04-25T03:50:38;20.10;47.30
32394;DHT22;18853;45.426;9.206;2023-04-25T03:53:04;20.00;47.30
32394;DHT22;18853;45.426;9.206;2023-04-25T03:55:30;20.00;47.30
32394;DHT22;18853;45.426;9.206;2023-04-25T03:57:57;20.00;47.40
32394;DHT22;18853;45.426;9.206;2023-04-25T04:00:24;20.00;47.50
32394;DHT22;18853;45.426;9.206;2023-04-25T04:02:49;20.00;47.50
32394;DHT22;18853;45.426;9.206;2023-04-25T04:05:15;20.00;47.60
32394;DHT22;18853;45.426;9.206;2023-04-25T04:07:41;19.90;47.70
32394;DHT22;18853;45.426;9.206;2023-04-25T04:10:11;19.90;47.70
32394;DHT22;18853;45.426;9.206;2023-04-25T04:12:37;19.90;47.70
32394;DHT22;18853;45.426;9.206;2023-04-25T04:15:06;19.90;47.90
32394;DHT22;18853;45.426;9.206;2023-04-25T04:17:33;19.80;47.80
32394;DHT22;18853;45.426;9.206;2023-04-25T04:19:59;19.90;47.90
32394;DHT22;18853;45.426;9.206;2023-04-25T04:22:25;19.80;48.00
32394;DHT22;18853;45.426;9.206;2023-04-25T04:24:51;19.80;48.00
32394;DHT22;18853;45.426;9.206;2023-04-25T04:27:21;19.80;47.90
32394;DHT22;18853;45.426;9.206;2023-04-25T04:29:47;19.80;48.00
32394;DHT22;18853;45.426;9.206;2023-04-25T04:32:14;19.70;47.90
32394;DHT22;18853;45.426;9.206;2023-04-25T04:34:40;19.80;48.00
32394;DHT22;18853;45.426;9.206;2023-04-25T04:37:06;19.70;48.00
32394;DHT22;18853;45.426;9.206;2023-04-25T04:39:33;19.70;48.00
32394;DHT22;18853;45.426;9.206;2023-04-25T04:41:59;19.70;48.00
32394;DHT22;18853;45.426;9.206;2023-04-25T04:44:26;19.70;48.10
32394;DHT22;18853;45.426;9.206;2023-04-25T04:46:53;19.70;48.20
32394;DHT22;18853;45.426;9.206;2023-04-25T04:49:20;19.70;48.20
32394;DHT22;18853;45.426;9.206;2023-04-25T04:51:46;19.60;48.30
32394;DHT22;18853;45.426;9.206;2023-04-25T04:54:12;19.60;48.40
32394;DHT22;18853;45.426;9.206;2023-04-25T04:56:38;19.60;48.50
32394;DHT22;18853;45.426;9.206;2023-04-25T04:59:04;19.60;48.50
32394;DHT22;18853;45.426;9.206;2023-04-25T05:01:29;19.50;48.50
32394;DHT22;18853;45.426;9.206;2023-04-25T05:03:56;19.60;48.50
32394;DHT22;18853;45.426;9.206;2023-04-25T05:06:29;19.50;48.50
32394;DHT22;18853;45.426;9.206;2023-04-25T05:08:55;19.50;48.60
32394;DHT22;18853;45.426;9.206;2023-04-25T05:11:22;19.60;48.70
32394;DHT22;18853;45.426;9.206;2023-04-25T05:13:49;19.50;48.70
32394;DHT22;18853;45.426;9.206;2023-04-25T05:16:15;19.60;48.60
32394;DHT22;18853;45.426;9.206;2023-04-25T05:18:41;19.50;48.70
32394;DHT22;18853;45.426;9.206;2023-04-25T05:21:07;19.60;48.80
32394;DHT22;18853;45.426;9.206;2023-04-25T05:23:33;19.50;48.80
32394;DHT22;18853;45.426;9.206;2023-04-25T05:25:59;19.50;48.90
32394;DHT22;18853;45.426;9.206;2023-04-25T05:28:25;19.50;48.90
32394;DHT22;18853;45.426;9.206;2023-04-25T05:30:51;19.50;48.90
32394;DHT22;18853;45.426;9.206;2023-04-25T05:33:17;19.50;49.00
32394;DHT22;18853;45.426;9.206;2023-04-25T05:35:42;19.50;49.10
32394;DHT22;18853;45.426;9.206;2023-04-25T05:38:08;19.40;49.20
32394;DHT22;18853;45.426;9.206;2023-04-25T05:40:34;19.40;49.30
32394;DHT22;18853;45.426;9.206;2023-04-25T05:43:00;19.40;49.30
32394;DHT22;18853;45.426;9.206;2023-04-25T05:45:25;19.40;49.10
32394;DHT22;18853;45.426;9.206;2023-04-25T05:47:51;19.50;49.20
32394;DHT22;18853;45.426;9.206;2023-04-25T05:50:17;19.50;49.20
32394;DHT22;18853;45.426;9.206;2023-04-25T05:52:42;19.50;49.20
32394;DHT22;18853;45.426;9.206;2023-04-25T05:55:08;19.50;49.30
32394;DHT22;18853;45.426;9.206;2023-04-25T05:57:34;19.50;49.20
32394;DHT22;18853;45.426;9.206;2023-04-25T06:00:00;19.50;49.10
32394;DHT22;18853;45.426;9.206;2023-04-25T06:02:26;19.50;49.20
32394;DHT22;18853;45.426;9.206;2023-04-25T06:04:52;19.50;49.10
32394;DHT22;18853;45.426;9.206;2023-04-25T06:07:18;19.60;49.00
32394;DHT22;18853;45.426;9.206;2023-04-25T06:09:45;19.60;49.00
32394;DHT22;18853;45.426;9.206;2023-04-25T06:12:11;19.60;49.10
32394;DHT22;18853;45.426;9.206;2023-04-25T06:14:36;19.60;49.20
32394;DHT22;18853;45.426;9.206;2023-04-25T06:17:03;19.60;49.10
32394;DHT22;18853;45.426;9.206;2023-04-25T06:19:34;19.60;48.90
32394;DHT22;18853;45.426;9.206;2023-04-25T06:22:01;19.60;49.10
32394;DHT22;18853;45.426;9.206;2023-04-25T06:24:26;19.60;49.00
32394;DHT22;18853;45.426;9.206;2023-04-25T06:26:52;19.70;48.80
32394;DHT22;18853;45.426;9.206;2023-04-25T06:29:18;19.70;48.80
32394;DHT22;18853;45.426;9.206;2023-04-25T06:31:44;19.70;49.50
32394;DHT22;18853;45.426;9.206;2023-04-25T06:34:10;19.60;49.00
32394;DHT22;18853;45.426;9.206;2023-04-25T06:36:37;19.70;49.10
32394;DHT22;18853;45.426;9.206;2023-04-25T06:39:02;19.60;49.30
32394;DHT22;18853;45.426;9.206;2023-04-25T06:41:28;19.60;49.40
32394;DHT22;18853;45.426;9.206;2023-04-25T06:43:54;19.60;49.20
32394;DHT22;18853;45.426;9.206;2023-04-25T06:46:19;19.70;49.40
32394;DHT22;18853;45.426;9.206;2023-04-25T06:48:45;19.70;49.50
32394;DHT22;18853;45.426;9.206;2023-04-25T06:51:11;19.70;49.40
32394;DHT22;18853;45.426;9.206;2023-04-25T06:53:39;19.70;49.50
32394;DHT22;18853;45.426;9.206;2023-04-25T06:56:04;19.80;49.50
32394;DHT22;18853;45.426;9.206;2023-04-25T06:58:30;19.80;49.50
32394;DHT22;18853;45.426;9.206;2023-04-25T07:00:56;19.80;49.60
32394;DHT22;18853;45.426;9.206;2023-04-25T07:03:22;19.80;49.80
32394;DHT22;18853;45.426;9.206;2023-04-25T07:05:48;19.80;49.80
32394;DHT22;18853;45.426;9.206;2023-04-25T07:08:13;19.80;49.80
32394;DHT22;18853;45.426;9.206;2023-04-25T07:10:39;19.80;49.80
32394;DHT22;18853;45.426;9.206;2023-04-25T07:13:05;19.80;49.70
32394;DHT22;18853;45.426;9.206;2023-04-25T07:15:31;19.90;50.00
32394;DHT22;18853;45.426;9.206;2023-04-25T07:17:56;19.90;50.00
32394;DHT22;18853;45.426;9.206;2023-04-25T07:20:22;20.00;50.10
32394;DHT22;18853;45.426;9.206;2023-04-25T07:22:48;20.00;50.00
32394;DHT22;18853;45.426;9.206;2023-04-25T07:25:15;20.10;50.20
32394;DHT22;18853;45.426;9.206;2023-04-25T07:27:41;20.10;50.50
32394;DHT22;18853;45.426;9.206;2023-04-25T07:30:07;20.10;50.40
32394;DHT22;18853;45.426;9.206;2023-04-25T07:32:33;20.10;50.50
32394;DHT22;18853;45.426;9.206;2023-04-25T07:34:59;20.10;50.10
32394;DHT22;18853;45.426;9.206;2023-04-25T07:37:25;20.10;50.10
32394;DHT22;18853;45.426;9.206;2023-04-25T07:39:51;20.10;49.90
32394;DHT22;18853;45.426;9.206;2023-04-25T07:42:17;20.10;50.00
32394;DHT22;18853;45.426;9.206;2023-04-25T07:44:42;20.10;50.00
32394;DHT22;18853;45.426;9.206;2023-04-25T07:47:09;20.20;50.10
32394;DHT22;18853;45.426;9.206;2023-04-25T07:49:36;20.20;50.40
32394;DHT22;18853;45.426;9.206;2023-04-25T07:52:02;20.20;50.20
32394;DHT22;18853;45.426;9.206;2023-04-25T07:54:28;20.20;49.90
32394;DHT22;18853;45.426;9.206;2023-04-25T07:56:55;20.20;50.00
32394;DHT22;18853;45.426;9.206;2023-04-25T07:59:21;20.20;50.10
32394;DHT22;18853;45.426;9.206;2023-04-25T08:01:47;20.20;50.00
32394;DHT22;18853;45.426;9.206;2023-04-25T08:04:13;20.30;50.40
32394;DHT22;18853;45.426;9.206;2023-04-25T08:06:39;20.30;50.50
32394;DHT22;18853;45.426;9.206;2023-04-25T08:09:05;20.40;50.20
32394;DHT22;18853;45.426;9.206;2023-04-25T08:11:31;20.40;50.00
32394;DHT22;18853;45.426;9.206;2023-04-25T08:13:57;20.40;49.90
32394;DHT22;18853;45.426;9.206;2023-04-25T08:16:22;20.40;49.90
32394;DHT22;18853;45.426;9.206;2023-04-25T08:18:49;20.40;50.20
32394;DHT22;18853;45.426;9.206;2023-04-25T08:21:15;20.50;49.60
32394;DHT22;18853;45.426;9.206;2023-04-25T08:23:41;20.60;49.40
32394;DHT22;18853;45.426;9.206;2023-04-25T08:26:07;20.70;49.40
32394;DHT22;18853;45.426;9.206;2023-04-25T08:28:33;20.70;49.00
32394;DHT22;18853;45.426;9.206;2023-04-25T08:30:59;20.70;48.90
32394;DHT22;18853;45.426;9.206;2023-04-25T08:33:25;20.60;48.80
32394;DHT22;18853;45.426;9.206;2023-04-25T08:35:51;20.50;48.90
32394;DHT22;18853;45.426;9.206;2023-04-25T08:38:17;20.60;49.20
32394;DHT22;18853;45.426;9.206;2023-04-25T08:40:43;20.60;49.80
32394;DHT22;18853;45.426;9.206;2023-04-25T08:43:12;20.60;49.30
32394;DHT22;18853;45.426;9.206;2023-04-25T08:45:39;20.60;49.40
32394;DHT22;18853;45.426;9.206;2023-04-25T08:48:16;20.60;48.00
32394;DHT22;18853;45.426;9.206;2023-04-25T08:50:51;20.70;47.50
32394;DHT22;18853;45.426;9.206;2023-04-25T08:53:27;20.70;48.10
32394;DHT22;18853;45.426;9.206;2023-04-25T08:55:54;20.80;47.20
32394;DHT22;18853;45.426;9.206;2023-04-25T08:58:21;20.80;47.50
32394;DHT22;18853;45.426;9.206;2023-04-25T09:00:49;20.80;47.90
32394;DHT22;18853;45.426;9.206;2023-04-25T09:03:16;21.00;47.60
32394;DHT22;18853;45.426;9.206;2023-04-25T09:05:42;21.00;47.40
32394;DHT22;18853;45.426;9.206;2023-04-25T09:08:08;21.10;47.30
32394;DHT22;18853;45.426;9.206;2023-04-25T09:10:34;21.10;47.10
32394;DHT22;18853;45.426;9.206;2023-04-25T09:13:11;21.20;46.40
32394;DHT22;18853;45.426;9.206;2023-04-25T09:18:31;21.20;46.70
32394;DHT22;18853;45.426;9.206;2023-04-25T09:21:09;21.20;45.80
32394;DHT22;18853;45.426;9.206;2023-04-25T09:23:45;21.20;46.10
32394;DHT22;18853;45.426;9.206;2023-04-25T09:26:14;21.20;46.20
32394;DHT22;18853;45.426;9.206;2023-04-25T09:28:40;21.20;46.30
32394;DHT22;18853;45.426;9.206;2023-04-25T09:31:10;21.20;45.70
32394;DHT22;18853;45.426;9.206;2023-04-25T09:33:36;21.30;45.30
32394;DHT22;18853;45.426;9.206;2023-04-25T09:36:07;21.30;45.70
32394;DHT22;18853;45.426;9.206;2023-04-25T09:38:43;21.40;45.70
32394;DHT22;18853;45.426;9.206;2023-04-25T09:41:10;21.40;45.50
32394;DHT22;18853;45.426;9.206;2023-04-25T09:43:36;21.30;45.40
32394;DHT22;18853;45.426;9.206;2023-04-25T09:46:03;21.40;45.80
32394;DHT22;18853;45.426;9.206;2023-04-25T09:48:33;21.50;45.80
32394;DHT22;18853;45.426;9.206;2023-04-25T09:51:12;21.60;45.60
32394;DHT22;18853;45.426;9.206;2023-04-25T09:53:44;21.60;45.00
32394;DHT22;18853;45.426;9.206;2023-04-25T09:56:12;21.50;45.30
32394;DHT22;18853;45.426;9.206;2023-04-25T09:58:40;21.40;45.40
32394;DHT22;18853;45.426;9.206;2023-04-25T10:01:07;21.40;45.50
32394;DHT22;18853;45.426;9.206;2023-04-25T10:03:35;21.40;45.50
32394;DHT22;18853;45.426;9.206;2023-04-25T10:06:08;21.40;45.60
32394;DHT22;18853;45.426;9.206;2023-04-25T10:08:38;21.40;44.90
32394;DHT22;18853;45.426;9.206;2023-04-25T10:11:05;21.50;45.70
32394;DHT22;18853;45.426;9.206;2023-04-25T10:13:33;21.50;45.50
32394;DHT22;18853;45.426;9.206;2023-04-25T10:16:00;21.70;45.80
32394;DHT22;18853;45.426;9.206;2023-04-25T10:18:29;21.70;44.80
32394;DHT22;18853;45.426;9.206;2023-04-25T10:21:01;21.70;45.30
32394;DHT22;18853;45.426;9.206;2023-04-25T10:23:30;21.80;45.60
32394;DHT22;18853;45.426;9.206;2023-04-25T10:25:57;21.80;44.90
32394;DHT22;18853;45.426;9.206;2023-04-25T10:28:23;21.80;45.20
32394;DHT22;18853;45.426;9.206;2023-04-25T10:33:36;21.90;45.50
32394;DHT22;18853;45.426;9.206;2023-04-25T10:36:19;21.90;44.10
32394;DHT22;18853;45.426;9.206;2023-04-25T10:38:48;21.80;45.00
32394;DHT22;18853;45.426;9.206;2023-04-25T10:41:14;21.80;45.20
32394;DHT22;18853;45.426;9.206;2023-04-25T10:43:41;21.90;44.90
32394;DHT22;18853;45.426;9.206;2023-04-25T10:46:24;21.90;44.50
32394;DHT22;18853;45.426;9.206;2023-04-25T10:48:52;22.00;44.70
32394;DHT22;18853;45.426;9.206;2023-04-25T10:51:25;22.00;44.00
32394;DHT22;18853;45.426;9.206;2023-04-25T10:56:22;22.00;43.40
32394;DHT22;18853;45.426;9.206;2023-04-25T10:58:48;21.90;44.50
32394;DHT22;18853;45.426;9.206;2023-04-25T11:01:21;21.90;44.10
32394;DHT22;18853;45.426;9.206;2023-04-25T11:03:56;21.90;44.00
32394;DHT22;18853;45.426;9.206;2023-04-25T11:06:27;21.80;44.00
32394;DHT22;18853;45.426;9.206;2023-04-25T11:08:55;21.90;44.30
32394;DHT22;18853;45.426;9.206;2023-04-25T11:11:20;22.00;44.20
32394;DHT22;18853;45.426;9.206;2023-04-25T11:13:49;22.10;43.10
32394;DHT22;18853;45.426;9.206;2023-04-25T11:16:16;22.10;42.80
32394;DHT22;18853;45.426;9.206;2023-04-25T11:18:43;22.20;42.90
32394;DHT22;18853;45.426;9.206;2023-04-25T11:21:10;22.30;42.60
32394;DHT22;18853;45.426;9.206;2023-04-25T11:23:35;22.30;43.00
32394;DHT22;18853;45.426;9.206;2023-04-25T11:26:02;22.40;43.20
32394;DHT22;18853;45.426;9.206;2023-04-25T11:28:28;22.40;43.00
32394;DHT22;18853;45.426;9.206;2023-04-25T11:30:54;22.50;43.00
32394;DHT22;18853;45.426;9.206;2023-04-25T11:33:24;22.50;43.00
32394;DHT22;18853;45.426;9.206;2023-04-25T11:35:54;22.50;41.80
32394;DHT22;18853;45.426;9.206;2023-04-25T11:38:21;22.50;41.10
32394;DHT22;18853;45.426;9.206;2023-04-25T11:40:54;22.50;41.00
32394;DHT22;18853;45.426;9.206;2023-04-25T11:43:21;22.50;41.30
32394;DHT22;18853;45.426;9.206;2023-04-25T11:45:50;22.50;42.20
32394;DHT22;18853;45.426;9.206;2023-04-25T11:48:18;22.60;42.10
32394;DHT22;18853;45.426;9.206;2023-04-25T11:50:44;22.50;42.00
32394;DHT22;18853;45.426;9.206;2023-04-25T11:53:10;22.50;42.10
32394;DHT22;18853;45.426;9.206;2023-04-25T11:55:36;22.60;42.30
32394;DHT22;18853;45.426;9.206;2023-04-25T11:58:03;22.70;41.80
32394;DHT22;18853;45.426;9.206;2023-04-25T12:00:30;22.80;41.90
32394;DHT22;18853;45.426;9.206;2023-04-25T12:02:57;23.00;41.70
32394;DHT22;18853;45.426;9.206;2023-04-25T12:05:27;23.00;41.10
32394;DHT22;18853;45.426;9.206;2023-04-25T12:07:54;23.00;40.60
32394;DHT22;18853;45.426;9.206;2023-04-25T12:10:20;23.10;40.40
32394;DHT22;18853;45.426;9.206;2023-04-25T12:12:47;23.20;40.60
32394;DHT22;18853;45.426;9.206;2023-04-25T12:15:15;23.30;39.70
32394;DHT22;18853;45.426;9.206;2023-04-25T12:17:45;23.30;40.50
32394;DHT22;18853;45.426;9.206;2023-04-25T12:20:18;23.40;39.80
32394;DHT22;18853;45.426;9.206;2023-04-25T12:22:46;23.40;40.30
32394;DHT22;18853;45.426;9.206;2023-04-25T12:25:13;23.50;39.70
32394;DHT22;18853;45.426;9.206;2023-04-25T12:27:40;23.60;39.00
32394;DHT22;18853;45.426;9.206;2023-04-25T12:30:09;23.50;38.20
32394;DHT22;18853;45.426;9.206;2023-04-25T12:32:36;23.40;38.90
32394;DHT22;18853;45.426;9.206;2023-04-25T12:35:04;23.40;39.20
32394;DHT22;18853;45.426;9.206;2023-04-25T12:37:30;23.30;40.00
32394;DHT22;18853;45.426;9.206;2023-04-25T12:39:56;23.20;40.10
32394;DHT22;18853;45.426;9.206;2023-04-25T12:42:22;23.30;39.90
32394;DHT22;18853;45.426;9.206;2023-04-25T12:44:48;23.30;39.40
32394;DHT22;18853;45.426;9.206;2023-04-25T12:47:14;23.30;40.00
32394;DHT22;18853;45.426;9.206;2023-04-25T12:49:39;23.30;40.10
32394;DHT22;18853;45.426;9.206;2023-04-25T12:52:05;23.30;40.10
32394;DHT22;18853;45.426;9.206;2023-04-25T12:54:31;23.30;39.90
32394;DHT22;18853;45.426;9.206;2023-04-25T12:56:56;23.30;39.20
32394;DHT22;18853;45.426;9.206;2023-04-25T12:59:22;23.30;39.70
32394;DHT22;18853;45.426;9.206;2023-04-25T13:01:48;23.30;39.70
32394;DHT22;18853;45.426;9.206;2023-04-25T13:04:14;23.20;39.50
32394;DHT22;18853;45.426;9.206;2023-04-25T13:06:41;23.20;39.40
32394;DHT22;18853;45.426;9.206;2023-04-25T13:09:08;23.20;39.30
32394;DHT22;18853;45.426;9.206;2023-04-25T13:11:34;23.10;38.80
32394;DHT22;18853;45.426;9.206;2023-04-25T13:14:00;23.00;38.60
32394;DHT22;18853;45.426;9.206;2023-04-25T13:16:27;22.90;39.30
32394;DHT22;18853;45.426;9.206;2023-04-25T13:18:52;22.80;39.70
32394;DHT22;18853;45.426;9.206;2023-04-25T13:21:18;22.70;39.80
32394;DHT22;18853;45.426;9.206;2023-04-25T13:23:44;22.50;40.30
32394;DHT22;18853;45.426;9.206;2023-04-25T13:26:11;22.30;41.10
32394;DHT22;18853;45.426;9.206;2023-04-25T13:28:37;22.30;42.40
32394;DHT22;18853;45.426;9.206;2023-04-25T13:31:03;22.20;39.50
32394;DHT22;18853;45.426;9.206;2023-04-25T13:33:29;22.10;36.50
32394;DHT22;18853;45.426;9.206;2023-04-25T13:35:55;21.90;37.50
32394;DHT22;18853;45.426;9.206;2023-04-25T13:38:23;22.00;33.90
32394;DHT22;18853;45.426;9.206;2023-04-25T13:40:50;22.00;32.20
32394;DHT22;18853;45.426;9.206;2023-04-25T13:43:22;21.90;32.00
32394;DHT22;18853;45.426;9.206;2023-04-25T13:45:51;21.60;31.60
32394;DHT22;18853;45.426;9.206;2023-04-25T13:48:18;21.50;31.10
32394;DHT22;18853;45.426;9.206;2023-04-25T13:50:43;21.40;30.10
32394;DHT22;18853;45.426;9.206;2023-04-25T13:53:09;21.50;30.70
32394;DHT22;18853;45.426;9.206;2023-04-25T13:55:35;21.60;32.10
32394;DHT22;18853;45.426;9.206;2023-04-25T13:58:02;21.70;33.10
32394;DHT22;18853;45.426;9.206;2023-04-25T14:00:34;21.90;33.70
32394;DHT22;18853;45.426;9.206;2023-04-25T14:02:59;22.10;35.00
32394;DHT22;18853;45.426;9.206;2023-04-25T14:05:25;22.30;34.60
32394;DHT22;18853;45.426;9.206;2023-04-25T14:07:51;22.50;35.00
32394;DHT22;18853;45.426;9.206;2023-04-25T14:10:16;22.90;35.20
32394;DHT22;18853;45.426;9.206;2023-04-25T14:12:42;23.20;35.10
32394;DHT22;18853;45.426;9.206;2023-04-25T14:15:08;23.40;35.10
32394;DHT22;18853;45.426;9.206;2023-04-25T14:17:34;23.50;33.20
32394;DHT22;18853;45.426;9.206;2023-04-25T14:20:00;23.70;33.60
32394;DHT22;18853;45.426;9.206;2023-04-25T14:22:25;23.80;34.90
32394;DHT22;18853;45.426;9.206;2023-04-25T14:24:51;24.00;34.10
32394;DHT22;18853;45.426;9.206;2023-04-25T14:27:17;24.00;33.90
32394;DHT22;18853;45.426;9.206;2023-04-25T14:29:43;23.90;34.90
32394;DHT22;18853;45.426;9.206;2023-04-25T14:32:08;23.90;36.10
32394;DHT22;18853;45.426;9.206;2023-04-25T14:34:34;23.90;35.10
32394;DHT22;18853;45.426;9.206;2023-04-25T14:37:00;24.00;35.40
32394;DHT22;18853;45.426;9.206;2023-04-25T14:39:26;24.10;34.70
32394;DHT22;18853;45.426;9.206;2023-04-25T14:41:51;24.10;34.70
32394;DHT22;18853;45.426;9.206;2023-04-25T14:44:17;24.20;34.20
32394;DHT22;18853;45.426;9.206;2023-04-25T14:46:43;24.30;33.90
32394;DHT22;18853;45.426;9.206;2023-04-25T14:49:08;24.30;34.40
32394;DHT22;18853;45.426;9.206;2023-04-25T14:51:34;24.30;35.30
32394;DHT22;18853;45.426;9.206;2023-04-25T14:54:00;24.50;35.60
32394;DHT22;18853;45.426;9.206;2023-04-25T14:56:25;24.70;35.80
32394;DHT22;18853;45.426;9.206;2023-04-25T14:58:51;24.80;35.50
32394;DHT22;18853;45.426;9.206;2023-04-25T15:01:17;25.00;35.30
32394;DHT22;18853;45.426;9.206;2023-04-25T15:03:43;25.20;35.50
32394;DHT22;18853;45.426;9.206;2023-04-25T15:06:09;25.40;34.40
32394;DHT22;18853;45.426;9.206;2023-04-25T15:08:35;25.40;33.70
32394;DHT22;18853;45.426;9.206;2023-04-25T15:11:01;25.30;33.90
32394;DHT22;18853;45.426;9.206;2023-04-25T15:13:28;25.30;33.70
32394;DHT22;18853;45.426;9.206;2023-04-25T15:15:54;25.20;33.60
32394;DHT22;18853;45.426;9.206;2023-04-25T15:18:21;25.10;33.10
32394;DHT22;18853;45.426;9.206;2023-04-25T15:20:52;25.00;33.10
32394;DHT22;18853;45.426;9.206;2023-04-25T15:23:18;25.00;33.50
32394;DHT22;18853;45.426;9.206;2023-04-25T15:25:45;25.00;33.80
32394;DHT22;18853;45.426;9.206;2023-04-25T15:28:11;25.00;33.80
32394;DHT22;18853;45.426;9.206;2023-04-25T15:30:40;25.00;34.10
32394;DHT22;18853;45.426;9.206;2023-04-25T15:33:06;25.10;33.30
32394;DHT22;18853;45.426;9.206;2023-04-25T15:35:31;25.20;32.90